Time;durP1;ratioP1;P1;durP2;ratioP2;P2;SDS_P1;SDS_P2;PMS_P1;PMS_P2;Temp;Humidity;BMP_temperature;BMP_pressure;BME280_temperature;BME280_humidity;BME280_pressure;Samples;Min_cycle;Max_cycle;Signal;HPM_P1;HPM_P2
2022/09/04 00:00:47;;;;;;;7.72;4.50;;;;;;;16.31;100.00;99361.09;4277532;33;20045;-70
2022/09/04 00:03:27;;;;;;;9.15;5.25;;;;;;;16.38;100.00;99355.34;4282967;33;20069;-70
2022/09/04 00:05:57;;;;;;;7.55;4.10;;;;;;;16.07;100.00;99326.44;4310955;33;20422;-72
2022/09/04 00:08:39;;;;;;;7.93;4.25;;;;;;;15.62;100.00;99280.16;4312360;33;20080;-70
2022/09/04 00:11:24;;;;;;;11.00;4.60;;;;;;;16.39;100.00;99367.87;4331904;32;20484;-71
2022/09/04 00:13:57;;;;;;;9.93;4.68;;;;;;;16.26;100.00;99374.72;4326225;33;20055;-69
2022/09/04 00:16:33;;;;;;;8.85;4.75;;;;;;;16.26;100.00;99372.81;4323346;33;20074;-70
2022/09/04 00:19:20;;;;;;;12.27;3.85;;;;;;;16.24;100.00;99371.44;4311471;33;20036;-70
2022/09/04 00:21:56;;;;;;;11.75;3.90;;;;;;;16.38;100.00;99377.09;4269753;33;20053;-70
2022/09/04 00:24:46;;;;;;;11.12;4.35;;;;;;;16.12;100.00;99336.47;4268455;33;20064;-70
2022/09/04 00:27:21;;;;;;;9.40;3.65;;;;;;;16.39;100.00;99368.66;4268601;33;20098;-69
2022/09/04 00:30:10;;;;;;;9.38;4.68;;;;;;;16.41;100.00;99327.63;4284226;33;20440;-70
2022/09/04 00:32:37;;;;;;;8.48;3.80;;;;;;;16.34;100.00;99317.06;4281190;33;20059;-69
2022/09/04 00:35:11;;;;;;;9.50;4.43;;;;;;;16.61;100.00;99381.88;4284221;33;20041;-69
2022/09/04 00:37:45;;;;;;;6.72;3.60;;;;;;;16.08;100.00;99297.38;4293382;33;20045;-69
2022/09/04 00:40:30;;;;;;;5.97;4.45;;;;;;;16.67;100.00;99380.75;4306686;33;20059;-75
2022/09/04 00:43:05;;;;;;;10.75;3.97;;;;;;;16.56;100.00;99373.75;4309794;33;20028;-69
2022/09/04 00:45:45;;;;;;;12.65;4.25;;;;;;;16.52;100.00;99375.37;4340663;33;20060;-70
2022/09/04 00:48:30;;;;;;;10.35;4.72;;;;;;;15.98;100.00;99337.06;4327244;33;20044;-69
2022/09/04 00:51:19;;;;;;;8.57;4.80;;;;;;;16.24;100.00;99377.72;4326412;33;20401;-71
2022/09/04 00:54:23;;;;;;;8.68;3.97;;;;;;;16.05;100.00;99346.81;4352348;32;20168;-69
2022/09/04 00:57:15;;;;;;;7.90;3.90;;;;;;;16.21;100.00;99383.69;4355892;32;20044;-69
2022/09/04 00:59:59;;;;;;;9.27;3.83;;;;;;;15.92;100.00;99380.81;4356559;32;20430;-69
2022/09/04 01:02:34;;;;;;;6.20;3.72;;;;;;;16.04;100.00;99356.06;4354509;32;20145;-69
2022/09/04 01:05:12;;;;;;;7.87;4.53;;;;;;;16.12;100.00;99377.22;4356454;32;20087;-69
2022/09/04 01:08:13;;;;;;;14.40;4.57;;;;;;;15.83;100.00;99383.28;4338880;33;20052;-69
2022/09/04 01:10:48;;;;;;;8.05;5.12;;;;;;;15.77;100.00;99378.94;4291512;33;20070;-69
2022/09/04 01:13:30;;;;;;;14.35;4.25;;;;;;;15.76;100.00;99382.72;4306108;33;20096;-70
2022/09/04 01:16:04;;;;;;;10.50;4.72;;;;;;;15.65;100.00;99343.91;4272824;33;20494;-69
2022/09/04 01:18:43;;;;;;;7.55;4.30;;;;;;;15.51;100.00;99335.56;4273813;33;20026;-69
2022/09/04 01:21:30;;;;;;;10.00;4.50;;;;;;;15.82;100.00;99386.28;4309928;33;20036;-70
2022/09/04 01:24:31;;;;;;;8.15;4.37;;;;;;;15.85;100.00;99381.09;4326950;33;20033;-69
2022/09/04 01:27:22;;;;;;;14.50;4.45;;;;;;;15.96;100.00;99376.44;4326750;33;20082;-69
2022/09/04 01:30:04;;;;;;;5.95;4.55;;;;;;;15.79;100.00;99338.75;4310604;33;20071;-71
2022/09/04 01:32:58;;;;;;;7.45;4.53;;;;;;;15.93;100.00;99375.09;4281551;33;20355;-68
2022/09/04 01:35:47;;;;;;;8.27;4.55;;;;;;;15.79;100.00;99376.75;4281140;33;20034;-71
2022/09/04 01:38:36;;;;;;;10.02;4.70;;;;;;;15.60;100.00;99341.22;4290183;33;20056;-70
2022/09/04 01:41:10;;;;;;;16.05;4.82;;;;;;;15.50;100.00;99380.06;4289784;33;20041;-70
2022/09/04 01:43:37;;;;;;;9.32;4.40;;;;;;;15.18;100.00;99383.06;4301102;33;20041;-69
2022/09/04 01:46:31;;;;;;;11.80;4.95;;;;;;;15.07;100.00;99379.53;4311907;33;20098;-70
2022/09/04 01:49:51;;;;;;;9.45;5.20;;;;;;;15.33;100.00;99379.53;4268812;33;20199;-70
2022/09/04 01:52:36;;;;;;;11.27;4.85;;;;;;;15.25;100.00;99373.56;4254112;33;20077;-70
2022/09/04 01:55:35;;;;;;;10.68;4.28;;;;;;;15.32;100.00;99383.34;4279907;33;20046;-70
2022/09/04 01:58:40;;;;;;;10.27;5.12;;;;;;;15.14;100.00;99377.38;4282666;33;20034;-70
2022/09/04 02:01:37;;;;;;;11.32;4.50;;;;;;;15.04;100.00;99378.16;4298160;33;20036;-70
2022/09/04 02:04:35;;;;;;;18.12;4.82;;;;;;;15.08;100.00;99363.00;4319151;33;20178;-70
2022/09/04 02:07:06;;;;;;;8.73;4.30;;;;;;;15.09;100.00;99369.22;4328973;33;20048;-70
2022/09/04 02:09:40;;;;;;;5.00;3.83;;;;;;;15.10;100.00;99335.59;4328261;33;20044;-71
2022/09/04 02:12:16;;;;;;;9.73;4.82;;;;;;;15.24;100.00;99381.97;4317727;33;20045;-70
2022/09/04 02:15:02;;;;;;;6.75;4.28;;;;;;;15.15;100.00;99341.03;4324910;33;20036;-70
2022/09/04 02:17:49;;;;;;;17.05;5.80;;;;;;;15.51;100.00;99383.56;4358176;32;20077;-70
2022/09/04 02:20:25;;;;;;;8.27;4.55;;;;;;;15.59;100.00;99383.84;4369472;32;20031;-70
2022/09/04 02:23:10;;;;;;;7.00;4.43;;;;;;;15.41;100.00;99381.69;4368072;32;20039;-70
2022/09/04 02:25:58;;;;;;;7.68;4.15;;;;;;;15.48;100.00;99390.38;4368956;32;20069;-69
2022/09/04 02:28:37;;;;;;;5.03;4.10;;;;;;;15.43;100.00;99390.38;4368884;32;20057;-73
2022/09/04 02:31:33;;;;;;;10.48;3.72;;;;;;;15.28;100.00;99382.25;4339132;33;20067;-69
2022/09/04 02:34:07;;;;;;;9.13;4.40;;;;;;;15.20;100.00;99376.28;4325094;33;20032;-69
2022/09/04 02:37:12;;;;;;;7.65;3.95;;;;;;;15.12;100.00;99351.59;4311436;33;20040;-71
2022/09/04 02:39:54;;;;;;;7.05;4.93;;;;;;;15.23;100.00;99392.00;4313510;33;20203;-69
2022/09/04 02:42:41;;;;;;;15.68;4.53;;;;;;;15.05;100.00;99376.28;4324534;33;20068;-69
2022/09/04 02:45:38;;;;;;;9.45;5.53;;;;;;;14.88;100.00;99357.56;4310781;33;20049;-69
2022/09/04 02:48:19;;;;;;;12.95;5.57;;;;;;;15.01;100.00;99384.16;4283135;33;20033;-70
2022/09/04 02:51:08;;;;;;;8.40;4.62;;;;;;;14.73;100.00;99352.94;4299434;33;20302;-70
2022/09/04 02:53:46;;;;;;;8.80;4.65;;;;;;;14.96;100.00;99391.47;4307212;33;20040;-69
2022/09/04 02:56:38;;;;;;;14.65;4.90;;;;;;;14.68;100.00;99352.94;4307446;33;20056;-70
2022/09/04 02:59:23;;;;;;;7.28;4.45;;;;;;;14.86;100.00;99392.25;4296297;33;20037;-70
2022/09/04 03:01:58;;;;;;;15.88;4.80;;;;;;;14.38;100.00;99403.22;4282122;33;20372;-70
2022/09/04 03:04:48;;;;;;;8.68;4.60;;;;;;;14.21;100.00;99391.78;4228765;33;20060;-68
2022/09/04 03:07:24;;;;;;;6.95;4.30;;;;;;;14.34;100.00;99402.94;4269370;33;20041;-69
2022/09/04 03:10:17;;;;;;;8.27;4.57;;;;;;;14.30;100.00;99395.62;4280090;33;20037;-70
2022/09/04 03:12:53;;;;;;;11.63;4.70;;;;;;;14.22;100.00;99406.97;4271288;33;20074;-70
2022/09/04 03:15:41;;;;;;;11.73;4.12;;;;;;;13.81;100.00;99370.47;4296749;33;20029;-70
2022/09/04 03:18:53;;;;;;;6.55;5.00;;;;;;;13.78;100.00;99368.28;4293903;33;20071;-75
2022/09/04 03:21:31;;;;;;;6.87;4.43;;;;;;;14.02;100.00;99394.13;4285130;33;20080;-74
2022/09/04 03:24:00;;;;;;;5.32;4.07;;;;;;;13.87;100.00;99398.41;4312970;33;20070;-69
2022/09/04 03:26:34;;;;;;;7.12;4.62;;;;;;;13.87;100.00;99403.81;4298941;33;20029;-71
2022/09/04 03:29:13;;;;;;;6.30;4.30;;;;;;;13.93;100.00;99407.37;4283861;33;20071;-69
2022/09/04 03:32:09;;;;;;;9.32;4.82;;;;;;;14.01;100.00;99409.56;4298474;33;20049;-69
2022/09/04 03:34:58;;;;;;;8.55;4.57;;;;;;;14.13;100.00;99407.44;4283262;33;20383;-74
2022/09/04 03:37:45;;;;;;;11.23;4.80;;;;;;;14.23;100.00;99406.69;4284205;33;20056;-68
2022/09/04 03:40:21;;;;;;;7.37;4.70;;;;;;;14.04;100.00;99403.62;4277997;33;20061;-70
2022/09/04 03:43:02;;;;;;;9.55;4.55;;;;;;;13.86;100.00;99406.78;4286071;33;20063;-69
2022/09/04 03:45:47;;;;;;;13.45;4.45;;;;;;;13.89;100.00;99382.69;4305953;33;20045;-69
2022/09/04 03:48:35;;;;;;;10.02;4.65;;;;;;;13.88;100.00;99377.53;4299186;33;20454;-69
2022/09/04 03:51:02;;;;;;;9.82;4.97;;;;;;;14.14;100.00;99419.91;4278459;33;20045;-69
2022/09/04 03:53:28;;;;;;;9.05;4.53;;;;;;;13.99;100.00;99422.53;4269038;33;20068;-69
2022/09/04 03:56:13;;;;;;;13.50;4.45;;;;;;;13.99;100.00;99422.53;4270421;33;20284;-69
2022/09/04 03:59:18;;;;;;;6.00;4.37;;;;;;;13.83;100.00;99385.66;4283777;33;20041;-69
2022/09/04 04:01:48;;;;;;;7.47;4.75;;;;;;;14.37;100.00;99422.44;4299021;33;20037;-69
2022/09/04 04:04:43;;;;;;;11.38;4.32;;;;;;;14.10;100.00;99424.22;4328119;33;20062;-70
2022/09/04 04:07:25;;;;;;;8.27;4.40;;;;;;;14.25;100.00;99426.19;4350988;33;20043;-69
2022/09/04 04:10:08;;;;;;;9.50;4.12;;;;;;;14.46;100.00;99427.09;4336893;33;20041;-74
2022/09/04 04:12:41;;;;;;;6.43;4.68;;;;;;;14.21;100.00;99424.28;4327870;33;20051;-69
2022/09/04 04:15:23;;;;;;;8.48;4.90;;;;;;;14.15;100.00;99436.97;4327751;33;20111;-69
2022/09/04 04:18:12;;;;;;;10.73;4.82;;;;;;;14.14;100.00;99430.75;4342006;33;20050;-70
2022/09/04 04:21:03;;;;;;;7.20;4.12;;;;;;;13.72;100.00;99380.19;4313248;33;20045;-70
2022/09/04 04:23:50;;;;;;;6.57;4.25;;;;;;;13.95;100.00;99438.50;4312687;33;20045;-70
2022/09/04 04:26:17;;;;;;;8.68;4.28;;;;;;;13.69;100.00;99434.81;4327172;33;20410;-70
2022/09/04 04:29:01;;;;;;;8.00;5.43;;;;;;;13.76;100.00;99440.00;4326720;33;20056;-71
2022/09/04 04:31:35;;;;;;;5.60;4.25;;;;;;;13.65;100.00;99432.91;4332035;33;20062;-70
2022/09/04 04:34:14;;;;;;;7.30;4.37;;;;;;;13.80;100.00;99423.00;4320334;33;20391;-70
2022/09/04 04:36:44;;;;;;;8.27;4.87;;;;;;;14.22;100.00;99428.63;4314120;33;20062;-70
2022/09/04 04:39:38;;;;;;;5.85;4.00;;;;;;;13.83;100.00;99446.00;4284114;33;20086;-70
2022/09/04 04:42:17;;;;;;;11.85;4.68;;;;;;;14.03;100.00;99437.19;4281488;33;20526;-70
2022/09/04 04:47:52;;;;;;;7.68;4.25;;;;;;;13.80;100.00;99414.87;4313211;33;20033;-70
2022/09/04 04:50:34;;;;;;;5.97;4.03;;;;;;;13.86;100.00;99445.47;4312980;33;20435;-69
2022/09/04 04:53:15;;;;;;;8.32;4.70;;;;;;;14.01;100.00;99416.88;4340233;33;20374;-69
2022/09/04 04:56:05;;;;;;;8.02;4.57;;;;;;;14.33;100.00;99449.25;4334537;33;20180;-70
2022/09/04 04:58:44;;;;;;;6.22;4.32;;;;;;;14.20;100.00;99455.13;4298574;33;20053;-70
2022/09/04 05:01:34;;;;;;;6.15;4.07;;;;;;;14.31;100.00;99456.81;4283503;33;20026;-69
2022/09/04 05:04:10;;;;;;;9.60;4.35;;;;;;;14.35;100.00;99457.94;4295430;33;20033;-69
2022/09/04 05:07:08;;;;;;;5.68;3.67;;;;;;;14.65;100.00;99457.25;4297074;33;20063;-69
2022/09/04 05:09:50;;;;;;;8.15;4.78;;;;;;;14.62;100.00;99462.41;4291988;33;20067;-69
2022/09/04 05:12:25;;;;;;;6.87;4.62;;;;;;;14.51;100.00;99421.69;4324594;33;20037;-70
2022/09/04 05:15:17;;;;;;;6.15;4.47;;;;;;;14.85;100.00;99463.81;4310603;33;20398;-70
2022/09/04 05:18:03;;;;;;;9.50;3.72;;;;;;;14.74;100.00;99459.47;4320648;33;20109;-69
2022/09/04 05:20:36;;;;;;;5.15;3.72;;;;;;;14.39;100.00;99404.88;4326432;33;20074;-74
2022/09/04 05:23:40;;;;;;;6.37;3.97;;;;;;;14.69;100.00;99463.78;4311635;33;20028;-68
2022/09/04 05:26:15;;;;;;;8.65;4.45;;;;;;;14.87;100.00;99459.78;4255809;33;20046;-70
2022/09/04 05:28:55;;;;;;;6.20;4.37;;;;;;;14.80;100.00;99475.47;4294619;33;20030;-70
2022/09/04 05:31:52;;;;;;;5.00;3.45;;;;;;;15.08;100.00;99466.03;4270240;33;20072;-70
2022/09/04 05:34:35;;;;;;;13.95;4.10;;;;;;;15.01;100.00;99470.94;4283418;33;20034;-69
2022/09/04 05:37:18;;;;;;;4.40;2.87;;;;;;;15.06;100.00;99461.97;4285682;33;20036;-69
2022/09/04 05:40:13;;;;;;;;;;;;;;;15.32;100.00;99467.44;4312484;33;20471;-69
2022/09/04 05:42:44;;;;;;;10.25;3.37;;;;;;;15.44;100.00;99478.81;4273669;33;19941;-74
2022/09/04 05:45:16;;;;;;;5.95;3.45;;;;;;;15.51;100.00;99468.53;4309797;33;20107;-70
2022/09/04 05:48:01;;;;;;;7.62;2.97;;;;;;;15.50;100.00;99439.75;4295845;33;20078;-70
2022/09/04 05:50:53;;;;;;;4.57;3.00;;;;;;;15.64;100.00;99444.66;4310233;33;20033;-71
2022/09/04 05:53:41;;;;;;;7.68;3.05;;;;;;;16.03;100.00;99484.78;4279467;33;20458;-69
2022/09/04 05:56:25;;;;;;;4.28;3.35;;;;;;;16.01;100.00;99486.97;4308589;33;20431;-70
2022/09/04 05:59:23;;;;;;;6.15;3.22;;;;;;;15.93;100.00;99491.88;4340055;33;20056;-69
2022/09/04 06:01:58;;;;;;;4.78;3.17;;;;;;;15.50;100.00;99456.03;4339823;33;20036;-69
2022/09/04 06:05:02;;;;;;;15.07;3.58;;;;;;;15.83;100.00;99489.16;4339291;33;20052;-69
2022/09/04 06:07:51;;;;;;;6.57;3.03;;;;;;;15.81;100.00;99488.59;4339239;33;20190;-69
2022/09/04 06:10:36;;;;;;;7.95;4.07;;;;;;;16.31;100.00;99486.91;4325875;33;20066;-70
2022/09/04 06:13:17;;;;;;;3.55;2.55;;;;;;;16.12;100.00;99497.53;4326042;33;20049;-70
2022/09/04 06:16:02;;;;;;;4.12;2.40;;;;;;;16.20;100.00;99501.59;4309795;33;20037;-69
2022/09/04 06:18:52;;;;;;;2.50;2.30;;;;;;;16.60;100.00;99502.56;4309955;33;20644;-69
2022/09/04 06:21:25;;;;;;;4.87;2.25;;;;;;;16.69;100.00;99497.37;4285119;33;20053;-69
2022/09/04 06:24:08;;;;;;;2.90;2.70;;;;;;;16.67;100.00;99511.25;4286344;33;20041;-73
2022/09/04 06:27:12;;;;;;;4.18;2.53;;;;;;;17.16;100.00;99504.19;4280814;33;20079;-69
2022/09/04 06:30:00;;;;;;;4.70;2.42;;;;;;;17.16;100.00;99512.38;4282483;33;20273;-69
2022/09/04 06:32:53;;;;;;;7.15;2.65;;;;;;;17.17;100.00;99491.44;4266882;33;20049;-69
2022/09/04 06:35:39;;;;;;;6.25;2.37;;;;;;;17.57;100.00;99505.84;4272781;33;20037;-69
2022/09/04 06:38:21;;;;;;;2.30;1.85;;;;;;;17.32;100.00;99515.81;4310915;33;20037;-69
2022/09/04 06:41:07;;;;;;;5.80;2.07;;;;;;;17.24;100.00;99508.25;4301522;33;20049;-72
2022/09/04 06:44:06;;;;;;;9.15;2.83;;;;;;;17.85;100.00;99506.13;4327639;33;20045;-69
2022/09/04 06:47:03;;;;;;;3.53;2.00;;;;;;;17.58;100.00;99502.84;4296261;33;20055;-69
2022/09/04 06:49:38;;;;;;;1.52;1.42;;;;;;;17.82;100.00;99509.44;4293907;33;20045;-69
2022/09/04 06:52:35;;;;;;;2.78;1.55;;;;;;;17.60;100.00;99516.16;4306681;33;20054;-68
2022/09/04 06:55:24;;;;;;;2.00;1.90;;;;;;;17.73;100.00;99499.16;4323483;33;20032;-70
2022/09/04 06:58:04;;;;;;;4.43;1.50;;;;;;;17.83;100.00;99519.25;4325327;33;20021;-70
2022/09/04 07:00:58;;;;;;;2.35;1.70;;;;;;;17.69;100.00;99503.53;4315992;33;20066;-69
2022/09/04 07:03:56;;;;;;;5.15;1.62;;;;;;;17.95;100.00;99512.34;4298192;33;20430;-70
2022/09/04 07:06:44;;;;;;;9.25;1.85;;;;;;;17.67;100.00;99478.50;4280649;33;20041;-70
2022/09/04 07:09:26;;;;;;;1.75;1.65;;;;;;;17.76;100.00;99481.44;4297026;33;20033;-69
2022/09/04 07:12:26;;;;;;;1.75;1.65;;;;;;;18.11;100.00;99491.22;4300643;33;20077;-68
2022/09/04 07:15:11;;;;;;;2.03;1.55;;;;;;;18.30;100.00;99526.72;4294078;33;20055;-75
2022/09/04 07:18:07;;;;;;;1.50;1.40;;;;;;;17.90;100.00;99525.19;4309409;33;20058;-69
2022/09/04 07:20:47;;;;;;;3.50;1.37;;;;;;;17.78;100.00;99528.25;4310041;33;20212;-69
2022/09/04 07:23:17;;;;;;;5.12;1.80;;;;;;;17.43;100.00;99502.94;4308070;33;20102;-69
2022/09/04 07:26:16;;;;;;;1.42;1.40;;;;;;;17.88;100.00;99538.28;4339686;33;20032;-70
2022/09/04 07:28:56;;;;;;;1.87;1.73;;;;;;;17.94;100.00;99516.16;4340232;33;20062;-70
2022/09/04 07:31:25;;;;;;;2.60;1.90;;;;;;;17.23;100.00;99479.38;4317353;33;20079;-71
2022/09/04 07:34:11;;;;;;;3.28;1.77;;;;;;;17.88;100.00;99532.84;4315693;33;20060;-69
2022/09/04 07:36:47;;;;;;;5.22;1.73;;;;;;;18.23;100.00;99539.06;4325531;33;20024;-69
2022/09/04 07:39:34;;;;;;;3.83;2.37;;;;;;;18.57;100.00;99554.50;4328042;33;20058;-71
2022/09/04 07:42:19;;;;;;;2.75;1.70;;;;;;;18.40;100.00;99514.88;4340350;33;20365;-70
2022/09/04 07:45:04;;;;;;;3.37;2.17;;;;;;;18.22;100.00;99542.88;4308505;33;20037;-69
2022/09/04 07:47:47;;;;;;;2.25;2.15;;;;;;;17.95;100.00;99555.12;4309583;33;20044;-69
2022/09/04 07:50:28;;;;;;;2.42;2.00;;;;;;;18.08;100.00;99557.19;4309433;33;20091;-70
2022/09/04 07:53:16;;;;;;;2.05;1.95;;;;;;;18.29;100.00;99559.72;4310832;33;20030;-69
2022/09/04 07:56:05;;;;;;;2.17;1.62;;;;;;;17.99;100.00;99567.06;4325578;33;20052;-70
2022/09/04 07:59:02;;;;;;;2.30;2.10;;;;;;;18.41;100.00;99562.88;4361264;32;20105;-70
2022/09/04 08:01:49;;;;;;;6.20;2.45;;;;;;;18.31;100.00;99568.41;4375841;32;20071;-70
2022/09/04 08:04:31;;;;;;;2.55;2.35;;;;;;;18.24;100.00;99540.69;4367794;32;20031;-69
2022/09/04 08:07:04;;;;;;;4.40;2.17;;;;;;;18.44;100.00;99567.72;4366992;32;20063;-70
2022/09/04 08:09:36;;;;;;;2.03;1.73;;;;;;;18.29;100.00;99567.88;4369317;32;20031;-70
2022/09/04 08:12:27;;;;;;;2.95;2.12;;;;;;;18.34;100.00;99573.28;4372737;32;20071;-70
2022/09/04 08:14:55;;;;;;;5.47;1.90;;;;;;;18.50;100.00;99550.19;4370477;32;20057;-70
2022/09/04 08:17:50;;;;;;;1.85;1.75;;;;;;;18.50;100.00;99573.94;4369981;32;20036;-70
2022/09/04 08:20:29;;;;;;;2.03;1.73;;;;;;;18.68;100.00;99583.28;4354731;32;20301;-69
2022/09/04 08:23:23;;;;;;;7.75;2.28;;;;;;;18.83;100.00;99574.94;4366128;32;20047;-70
2022/09/04 08:26:16;;;;;;;7.30;1.70;;;;;;;18.59;100.00;99579.56;4370681;32;20593;-69
2022/09/04 08:29:28;;;;;;;4.40;2.12;;;;;;;19.00;100.00;99581.84;4366662;32;20054;-70
2022/09/04 08:32:24;;;;;;;2.60;2.12;;;;;;;18.15;100.00;99511.31;4384395;32;20074;-68
2022/09/04 08:35:02;;;;;;;2.05;1.90;;;;;;;18.63;100.00;99550.63;4381440;32;20043;-69
2022/09/04 08:37:43;;;;;;;3.08;1.60;;;;;;;18.48;100.00;99549.69;4387298;32;20035;-70
2022/09/04 08:40:24;;;;;;;2.60;2.20;;;;;;;18.96;100.00;99589.81;4370588;32;20077;-69
2022/09/04 08:43:02;;;;;;;3.25;1.67;;;;;;;18.57;100.00;99560.78;4371631;32;20054;-69
2022/09/04 08:45:42;;;;;;;2.03;1.87;;;;;;;19.03;100.00;99592.19;4369957;32;20061;-71
2022/09/04 08:48:34;;;;;;;2.03;1.60;;;;;;;18.96;100.00;99591.72;4371061;32;20158;-70
2022/09/04 08:51:00;;;;;;;;;;;;;;;18.83;100.00;99588.56;4355618;32;20473;-69
2022/09/04 08:53:41;;;;;;;6.80;2.42;;;;;;;19.20;100.00;99583.50;4352867;32;20332;-70
2022/09/04 08:56:17;;;;;;;1.60;1.40;;;;;;;18.91;100.00;99580.88;4340395;33;20048;-70
2022/09/04 08:59:25;;;;;;;8.35;1.45;;;;;;;19.06;100.00;99588.87;4340089;33;20024;-70
2022/09/04 09:02:32;;;;;;;1.58;1.45;;;;;;;19.34;100.00;99578.16;4293658;32;20048;-74
2022/09/04 09:05:04;;;;;;;2.33;2.12;;;;;;;19.36;100.00;99581.37;4341423;33;20070;-68
2022/09/04 09:07:39;;;;;;;;;;;;;;;19.37;100.00;99585.72;4364410;32;20035;-71
2022/09/04 09:10:15;;;;;;;3.17;1.67;;;;;;;19.52;100.00;99585.50;4371899;32;19931;-69
2022/09/04 09:13:05;;;;;;;3.58;1.60;;;;;;;19.16;100.00;99561.47;4370951;32;20062;-69
2022/09/04 09:15:34;;;;;;;1.48;1.37;;;;;;;19.62;100.00;99590.00;4386801;32;20330;-69
2022/09/04 09:18:01;;;;;;;1.33;1.23;;;;;;;19.63;100.00;99590.84;4386849;32;20043;-69
2022/09/04 09:20:49;;;;;;;4.70;1.35;;;;;;;19.12;100.00;99593.16;4401407;32;20024;-69
2022/09/04 09:23:18;;;;;;;1.40;1.40;;;;;;;19.63;100.00;99596.31;4415844;32;20128;-69
2022/09/04 09:26:07;;;;;;;1.95;1.12;;;;;;;19.89;100.00;99600.28;4416052;32;20048;-69
2022/09/04 09:28:34;;;;;;;1.25;1.17;;;;;;;19.85;100.00;99599.25;4414946;32;20078;-74
2022/09/04 09:32:06;;;;;;;1.95;1.00;;;;;;;19.50;100.00;99601.38;4416625;32;20034;-69
2022/09/04 09:35:07;;;;;;;0.80;0.80;;;;;;;19.91;100.00;99603.53;4356586;32;20048;-69
2022/09/04 09:38:01;;;;;;;2.90;1.08;;;;;;;19.59;100.00;99605.09;4366632;32;20534;-70
2022/09/04 09:40:46;;;;;;;1.77;1.58;;;;;;;19.65;100.00;99599.53;4368800;32;20680;-70
2022/09/04 09:43:41;;;;;;;2.53;1.12;;;;;;;19.60;100.00;99597.69;4375737;32;20093;-69
2022/09/04 09:46:16;;;;;;;1.73;1.55;;;;;;;20.12;100.00;99593.06;4368532;32;20065;-73
2022/09/04 09:49:01;;;;;;;4.18;1.95;;;;;;;20.09;100.00;99590.13;4371368;32;20075;-70
2022/09/04 09:51:49;;;;;;;3.72;1.30;;;;;;;19.81;100.00;99595.47;4371057;32;20070;-70
2022/09/04 09:54:25;;;;;;;1.15;1.05;;;;;;;20.05;100.00;99586.38;4371455;32;20043;-70
2022/09/04 09:56:57;;;;;;;1.73;1.10;;;;;;;19.89;100.00;99596.72;4369855;32;20398;-69
2022/09/04 09:59:23;;;;;;;;;;;;;;;20.00;100.00;99595.47;4376729;32;20035;-70
2022/09/04 10:02:15;;;;;;;4.28;1.50;;;;;;;20.26;100.00;99589.56;4382186;32;19937;-70
2022/09/04 10:04:47;;;;;;;;;;;;;;;19.91;100.00;99524.28;4390280;32;20042;-70
2022/09/04 10:07:58;;;;;;;3.10;1.65;;;;;;;20.32;100.00;99602.81;4382791;32;19938;-73
2022/09/04 10:10:53;;;;;;;2.30;0.93;;;;;;;20.95;100.00;99602.50;4374498;32;20042;-74
2022/09/04 10:13:47;;;;;;;2.40;1.33;;;;;;;20.94;95.08;99601.69;4411240;32;20027;-69
2022/09/04 10:16:34;;;;;;;5.78;1.37;;;;;;;21.14;92.69;99586.78;4437646;32;20077;-69
2022/09/04 10:19:18;;;;;;;2.05;1.37;;;;;;;21.22;94.83;99591.53;4445227;32;20030;-69
2022/09/04 10:22:22;;;;;;;2.35;1.00;;;;;;;20.58;97.96;99594.19;4431486;32;20052;-71
2022/09/04 10:25:27;;;;;;;1.77;1.67;;;;;;;20.33;99.43;99536.09;4441330;32;20026;-71
2022/09/04 10:28:03;;;;;;;3.20;1.75;;;;;;;20.68;96.36;99566.66;4431300;32;20071;-70
2022/09/04 10:31:06;;;;;;;3.50;1.70;;;;;;;20.56;97.52;99574.50;4451220;32;20037;-72
2022/09/04 10:34:26;;;;;;;3.05;1.30;;;;;;;20.89;97.38;99592.81;4464350;32;20059;-69
2022/09/04 10:37:14;;;;;;;4.03;1.90;;;;;;;21.35;97.12;99611.81;4384919;32;20053;-69
2022/09/04 10:42:59;;;;;;;4.65;1.85;;;;;;;21.18;100.00;99606.16;4415485;32;20043;-69
2022/09/04 10:45:52;;;;;;;2.37;1.30;;;;;;;21.30;100.00;99608.34;4415788;32;20085;-69
2022/09/04 10:48:41;;;;;;;3.05;1.58;;;;;;;22.03;92.12;99603.66;4395149;32;20334;-69
2022/09/04 10:51:26;;;;;;;1.75;1.65;;;;;;;22.08;86.96;99611.78;4391650;32;20038;-69
2022/09/04 10:54:05;;;;;;;5.37;1.48;;;;;;;21.97;86.19;99599.47;4390619;32;20068;-69
2022/09/04 10:56:51;;;;;;;8.27;1.30;;;;;;;21.46;96.41;99611.56;4370238;32;20042;-72
2022/09/04 10:59:55;;;;;;;6.72;1.58;;;;;;;21.36;98.92;99618.91;4352027;32;20394;-70
2022/09/04 11:02:40;;;;;;;1.60;1.50;;;;;;;21.04;99.27;99617.94;4350423;32;20097;-70
2022/09/04 11:05:32;;;;;;;5.65;1.27;;;;;;;20.74;100.00;99618.53;4354604;32;20788;-69
2022/09/04 11:08:12;;;;;;;2.03;1.40;;;;;;;20.42;100.00;99611.97;4358568;32;20106;-75
2022/09/04 11:10:58;;;;;;;1.55;1.00;;;;;;;20.42;100.00;99595.56;4375353;32;20094;-70
2022/09/04 11:13:49;;;;;;;5.47;1.25;;;;;;;20.89;98.84;99598.28;4381974;32;20057;-71
2022/09/04 11:16:43;;;;;;;3.97;1.37;;;;;;;21.08;100.00;99609.91;4383203;32;20135;-68
2022/09/04 11:19:13;;;;;;;2.45;1.65;;;;;;;22.09;92.70;99607.91;4381651;32;20039;-69
2022/09/04 11:22:20;;;;;;;1.30;1.25;;;;;;;21.70;91.00;99614.88;4399670;32;20483;-69
2022/09/04 11:25:03;;;;;;;2.00;1.73;;;;;;;21.70;89.34;99579.25;4397564;32;20341;-68
2022/09/04 11:27:44;;;;;;;8.90;1.37;;;;;;;22.08;87.67;99576.16;4396617;32;20124;-70
2022/09/04 11:30:15;;;;;;;;;;;;;;;23.36;74.63;99615.75;4409294;32;20457;-69
2022/09/04 11:32:58;;;;;;;1.62;1.52;;;;;;;24.04;69.83;99611.75;4433988;32;19992;-71
2022/09/04 11:35:55;;;;;;;1.62;1.52;;;;;;;24.36;66.20;99606.81;4463445;32;20063;-69
2022/09/04 11:39:10;;;;;;;1.77;1.37;;;;;;;24.13;60.07;99615.31;4464061;32;20033;-69
2022/09/04 11:41:58;;;;;;;1.37;1.37;;;;;;;23.80;64.97;99618.53;4438794;32;20172;-70
2022/09/04 11:44:44;;;;;;;2.22;1.50;;;;;;;23.66;66.87;99623.38;4462632;32;20073;-69
2022/09/04 11:47:27;;;;;;;1.30;1.20;;;;;;;24.59;61.36;99613.75;4433952;32;20375;-70
2022/09/04 11:50:02;;;;;;;3.03;1.80;;;;;;;23.83;56.82;99619.81;4405109;32;20423;-70
2022/09/04 11:52:41;;;;;;;1.27;1.27;;;;;;;23.60;60.17;99613.66;4402719;32;20034;-70
2022/09/04 11:55:22;;;;;;;1.52;1.48;;;;;;;23.25;67.75;99608.12;4403447;32;20030;-69
2022/09/04 11:58:42;;;;;;;1.15;1.10;;;;;;;23.71;64.56;99615.78;4402592;32;21210;-74
2022/09/04 12:01:35;;;;;;;1.40;1.30;;;;;;;23.61;62.43;99610.59;4382526;32;20429;-72
2022/09/04 12:04:22;;;;;;;1.23;1.12;;;;;;;23.57;61.65;99585.69;4385725;32;20027;-69
2022/09/04 12:07:15;;;;;;;3.17;1.58;;;;;;;24.23;62.57;99601.19;4381994;32;20129;-69
2022/09/04 12:10:07;;;;;;;8.50;1.98;;;;;;;23.74;57.18;99575.81;4372524;32;20069;-69
2022/09/04 12:13:01;;;;;;;3.50;1.30;;;;;;;23.20;58.57;99595.38;4372558;32;20035;-70
2022/09/04 12:15:49;;;;;;;10.98;1.30;;;;;;;22.00;62.79;99507.53;4371223;32;20452;-74
2022/09/04 12:18:32;;;;;;;2.03;1.55;;;;;;;22.92;64.58;99592.03;4387002;32;20028;-70
2022/09/04 12:21:20;;;;;;;1.27;1.20;;;;;;;23.77;55.71;99591.69;4421797;32;20046;-73
2022/09/04 12:24:24;;;;;;;1.33;1.30;;;;;;;23.54;65.33;99589.09;4444170;32;20047;-71
2022/09/04 12:27:12;;;;;;;1.98;1.17;;;;;;;23.67;68.62;99592.81;4446043;32;20652;-69
2022/09/04 12:30:06;;;;;;;3.08;1.30;;;;;;;23.94;59.03;99590.91;4443776;32;20045;-71
2022/09/04 12:32:48;;;;;;;6.03;1.20;;;;;;;23.30;59.81;99580.53;4454689;32;20055;-69
2022/09/04 12:35:28;;;;;;;0.90;0.90;;;;;;;23.19;63.77;99586.31;4446882;32;20493;-74
2022/09/04 12:38:04;;;;;;;1.17;1.17;;;;;;;23.32;65.07;99570.81;4452327;32;20038;-69
2022/09/04 12:40:47;;;;;;;1.95;1.83;;;;;;;23.29;70.59;99587.13;4453518;32;20117;-69
2022/09/04 12:43:40;;;;;;;1.40;1.30;;;;;;;22.36;73.34;99554.03;4458930;32;20417;-69
2022/09/04 12:46:21;;;;;;;1.23;1.12;;;;;;;22.60;77.75;99589.34;4447819;32;20034;-69
2022/09/04 12:49:35;;;;;;;1.50;1.10;;;;;;;22.70;77.95;99544.31;4447853;32;20402;-69
2022/09/04 12:52:20;;;;;;;1.23;1.20;;;;;;;23.18;71.92;99584.72;4401688;32;20042;-69
2022/09/04 12:55:08;;;;;;;2.20;0.90;;;;;;;23.26;68.75;99587.78;4451822;32;20418;-70
2022/09/04 12:58:06;;;;;;;1.10;1.10;;;;;;;23.28;65.58;99585.50;4442605;32;20081;-70